Time;durP1;ratioP1;P1;durP2;ratioP2;P2;SDS_P1;SDS_P2;PMS_P1;PMS_P2;Temp;Humidity;BMP_temperature;BMP_pressure;BME280_temperature;BME280_humidity;BME280_pressure;Samples;Min_cycle;Max_cycle;Signal;HPM_P1;HPM_P2
2023/08/03 00:02:14;;;;;;;16.35;7.07;;;;;;;;;;4959082;28;20058;-82
2023/08/03 00:04:46;;;;;;;17.73;6.97;;;;;;;;;;4960006;28;20054;-83
2023/08/03 00:07:18;;;;;;;20.25;5.72;;;;;;;;;;4960555;28;20046;-83
2023/08/03 00:09:49;;;;;;;13.02;6.13;;;;;;;;;;4960333;28;20501;-82
2023/08/03 00:12:23;;;;;;;14.32;6.22;;;;;;;;;;4960228;28;20474;-82
2023/08/03 00:15:03;;;;;;;16.58;6.65;;;;;;;;;;4953966;28;20047;-83
2023/08/03 00:17:38;;;;;;;20.35;6.38;;;;;;;;;;4975632;28;20058;-82
2023/08/03 00:20:09;;;;;;;16.20;5.90;;;;;;;;;;4976727;28;20050;-82
2023/08/03 00:22:49;;;;;;;19.30;7.10;;;;;;;;;;4976217;28;20386;-83
2023/08/03 00:25:20;;;;;;;12.88;6.03;;;;;;;;;;4976248;28;20043;-82
2023/08/03 00:27:52;;;;;;;17.95;6.82;;;;;;;;;;4959664;28;20055;-82
2023/08/03 00:30:22;;;;;;;14.38;7.00;;;;;;;;;;4976139;28;20054;-82
2023/08/03 00:32:54;;;;;;;14.23;6.43;;;;;;;;;;4976444;28;20070;-84
2023/08/03 00:35:24;;;;;;;16.20;6.68;;;;;;;;;;4976519;28;20043;-84
2023/08/03 00:37:55;;;;;;;16.17;7.57;;;;;;;;;;4976008;28;20497;-83
2023/08/03 00:40:25;;;;;;;17.40;7.22;;;;;;;;;;4958211;28;20051;-82
2023/08/03 00:42:57;;;;;;;15.10;6.97;;;;;;;;;;4969390;28;20066;-83
2023/08/03 00:45:31;;;;;;;18.58;7.90;;;;;;;;;;4958108;28;20432;-83
2023/08/03 00:48:01;;;;;;;20.98;6.90;;;;;;;;;;4974848;28;20039;-85
2023/08/03 00:50:32;;;;;;;15.05;7.20;;;;;;;;;;4974712;28;20160;-85
2023/08/03 00:53:05;;;;;;;20.75;7.30;;;;;;;;;;4975086;28;20477;-84
2023/08/03 00:55:37;;;;;;;18.27;7.30;;;;;;;;;;4938404;29;20047;-84
2023/08/03 00:58:10;;;;;;;16.23;7.20;;;;;;;;;;4954655;28;20074;-84
2023/08/03 01:00:40;;;;;;;14.48;7.70;;;;;;;;;;4974597;28;20042;-83
2023/08/03 01:03:13;;;;;;;16.65;7.40;;;;;;;;;;4974844;28;20073;-84
2023/08/03 01:05:46;;;;;;;14.65;7.00;;;;;;;;;;4974135;28;20433;-83
2023/08/03 01:08:16;;;;;;;13.15;7.38;;;;;;;;;;4957112;28;20484;-84
2023/08/03 01:10:47;;;;;;;18.00;6.82;;;;;;;;;;4974674;28;20043;-84
2023/08/03 01:13:18;;;;;;;15.65;7.47;;;;;;;;;;4984211;28;20109;-84
2023/08/03 01:15:52;;;;;;;16.38;7.55;;;;;;;;;;4957912;28;20046;-83
2023/08/03 01:18:27;;;;;;;;;;;;;;;;;;4941072;28;20058;-83
2023/08/03 01:20:57;;;;;;;14.95;7.35;;;;;;;;;;4969338;28;19922;-83
2023/08/03 01:23:33;;;;;;;22.75;7.85;;;;;;;;;;4974390;28;20057;-83
2023/08/03 01:26:05;;;;;;;16.77;7.30;;;;;;;;;;4970050;28;20066;-83
2023/08/03 01:28:35;;;;;;;20.77;8.32;;;;;;;;;;4954471;28;20070;-83
2023/08/03 01:31:06;;;;;;;15.48;8.15;;;;;;;;;;4953816;29;20069;-83
2023/08/03 01:33:37;;;;;;;15.68;7.60;;;;;;;;;;4954086;29;20498;-83
2023/08/03 01:36:09;;;;;;;15.80;7.60;;;;;;;;;;4960397;28;20533;-83
2023/08/03 01:38:40;;;;;;;16.90;7.53;;;;;;;;;;4967414;28;20478;-82
2023/08/03 01:41:10;;;;;;;19.85;8.35;;;;;;;;;;4953338;28;20042;-83
2023/08/03 01:43:43;;;;;;;;;;;;;;;;;;4956899;28;20049;-83
2023/08/03 01:46:14;;;;;;;15.93;8.52;;;;;;;;;;4972863;28;20292;-82
2023/08/03 01:48:48;;;;;;;15.35;7.22;;;;;;;;;;4970625;28;20054;-83
2023/08/03 01:51:19;;;;;;;17.88;8.10;;;;;;;;;;4973144;28;20058;-82
2023/08/03 01:53:52;;;;;;;17.23;9.00;;;;;;;;;;4955553;28;20413;-82
2023/08/03 01:56:23;;;;;;;16.05;7.68;;;;;;;;;;4967680;28;20054;-82
2023/08/03 01:58:59;;;;;;;23.02;8.30;;;;;;;;;;4951702;28;20057;-82
2023/08/03 02:01:30;;;;;;;16.85;8.43;;;;;;;;;;4966124;28;20047;-81
2023/08/03 02:04:00;;;;;;;17.25;8.50;;;;;;;;;;4971864;28;20046;-82
2023/08/03 02:06:33;;;;;;;16.48;7.93;;;;;;;;;;4949517;28;20058;-83
2023/08/03 02:09:05;;;;;;;17.58;7.70;;;;;;;;;;4938743;28;20062;-83
2023/08/03 02:11:37;;;;;;;16.83;7.28;;;;;;;;;;4971991;28;20038;-82
2023/08/03 02:14:12;;;;;;;17.33;8.02;;;;;;;;;;4954094;28;20061;-82
2023/08/03 02:16:42;;;;;;;16.15;8.18;;;;;;;;;;4953809;28;20054;-82
2023/08/03 02:19:14;;;;;;;18.05;7.80;;;;;;;;;;4954428;28;20043;-82
2023/08/03 02:21:44;;;;;;;21.25;8.65;;;;;;;;;;4970136;28;20078;-82
2023/08/03 02:24:17;;;;;;;18.10;8.13;;;;;;;;;;4970214;28;20148;-82
2023/08/03 02:26:47;;;;;;;16.58;8.10;;;;;;;;;;4971635;28;20042;-83
2023/08/03 02:29:19;;;;;;;16.23;8.52;;;;;;;;;;4972575;28;20050;-83
2023/08/03 02:31:53;;;;;;;17.95;8.02;;;;;;;;;;4968366;28;20046;-83
2023/08/03 02:34:24;;;;;;;16.67;7.32;;;;;;;;;;4949496;28;20055;-83
2023/08/03 02:36:59;;;;;;;20.02;7.68;;;;;;;;;;4954070;28;20047;-83
2023/08/03 02:39:33;;;;;;;;;;;;;;;;;;4969016;28;20042;-83
2023/08/03 02:42:06;;;;;;;22.35;8.98;;;;;;;;;;4967065;28;19922;-83
2023/08/03 02:44:41;;;;;;;21.38;9.35;;;;;;;;;;4953122;28;20433;-83
2023/08/03 02:47:13;;;;;;;18.15;9.48;;;;;;;;;;4949787;28;20497;-83
2023/08/03 02:49:47;;;;;;;21.55;8.68;;;;;;;;;;4952223;28;20050;-84
2023/08/03 02:52:19;;;;;;;18.35;9.25;;;;;;;;;;4954292;28;20058;-80
2023/08/03 02:54:50;;;;;;;17.98;7.90;;;;;;;;;;4950748;28;20051;-82
2023/08/03 02:57:22;;;;;;;16.70;8.10;;;;;;;;;;4936171;29;20059;-82
2023/08/03 02:59:54;;;;;;;15.20;7.35;;;;;;;;;;4983650;28;20061;-83
2023/08/03 03:02:27;;;;;;;17.13;7.80;;;;;;;;;;4951996;29;20082;-82
2023/08/03 03:04:58;;;;;;;19.42;7.88;;;;;;;;;;4950762;28;20517;-81
2023/08/03 03:07:33;;;;;;;18.60;7.70;;;;;;;;;;4941297;28;20043;-83
2023/08/03 03:10:06;;;;;;;17.23;7.57;;;;;;;;;;4936780;29;20414;-84
2023/08/03 03:12:39;;;;;;;17.10;7.82;;;;;;;;;;4937838;29;20052;-83
2023/08/03 03:15:11;;;;;;;18.20;8.18;;;;;;;;;;4951989;29;20390;-83
2023/08/03 03:17:42;;;;;;;17.70;7.95;;;;;;;;;;4953840;28;20054;-83
2023/08/03 03:20:20;;;;;;;13.93;7.57;;;;;;;;;;4952242;29;20150;-83
2023/08/03 03:22:53;;;;;;;15.15;7.70;;;;;;;;;;4952726;29;20376;-83
2023/08/03 03:25:23;;;;;;;;;;;;;;;;;;4954315;29;20044;-82
2023/08/03 03:27:54;;;;;;;15.20;6.60;;;;;;;;;;4953882;28;20359;-83
2023/08/03 03:30:26;;;;;;;14.25;6.78;;;;;;;;;;4957607;29;20059;-82
2023/08/03 03:33:00;;;;;;;18.45;7.45;;;;;;;;;;4955725;29;20056;-82
2023/08/03 03:35:33;;;;;;;14.13;6.78;;;;;;;;;;4957146;29;20055;-83
2023/08/03 03:38:05;;;;;;;18.10;7.00;;;;;;;;;;4957411;29;20043;-82
2023/08/03 03:40:39;;;;;;;13.05;7.95;;;;;;;;;;4971656;28;20417;-84
2023/08/03 03:43:10;;;;;;;17.77;7.68;;;;;;;;;;4955435;29;20434;-82
2023/08/03 03:45:41;;;;;;;14.88;6.63;;;;;;;;;;4955143;29;20414;-83
2023/08/03 03:48:13;;;;;;;16.58;7.95;;;;;;;;;;4955808;29;20047;-83
2023/08/03 03:50:46;;;;;;;15.85;6.50;;;;;;;;;;4955580;29;20051;-82
2023/08/03 03:53:18;;;;;;;18.58;7.43;;;;;;;;;;4955460;29;20407;-83
2023/08/03 03:55:53;;;;;;;17.08;7.28;;;;;;;;;;4955729;29;20065;-83
2023/08/03 03:58:24;;;;;;;15.00;7.13;;;;;;;;;;4955013;29;20056;-83
2023/08/03 04:00:58;;;;;;;15.43;6.85;;;;;;;;;;4972183;28;20051;-83
2023/08/03 04:03:30;;;;;;;17.67;7.75;;;;;;;;;;4955979;29;20051;-83
2023/08/03 04:06:05;;;;;;;19.50;6.63;;;;;;;;;;4971799;28;20047;-83
2023/08/03 04:08:35;;;;;;;16.88;7.60;;;;;;;;;;4955854;29;20056;-83
2023/08/03 04:11:06;;;;;;;12.15;7.03;;;;;;;;;;4957771;29;20051;-82
2023/08/03 04:13:36;;;;;;;16.42;6.60;;;;;;;;;;4971847;28;20058;-84
2023/08/03 04:16:09;;;;;;;17.88;6.90;;;;;;;;;;4954119;29;20051;-83
2023/08/03 04:18:40;;;;;;;15.18;7.22;;;;;;;;;;4957302;29;20052;-82
2023/08/03 04:21:10;;;;;;;14.60;7.18;;;;;;;;;;4954878;29;20067;-82
2023/08/03 04:23:43;;;;;;;15.38;6.95;;;;;;;;;;4955475;29;20062;-82
2023/08/03 04:26:13;;;;;;;16.83;6.57;;;;;;;;;;4940456;29;20051;-82
2023/08/03 04:28:43;;;;;;;14.15;6.72;;;;;;;;;;4957066;29;20157;-81
2023/08/03 04:31:15;;;;;;;14.35;6.95;;;;;;;;;;4970865;28;20427;-82
2023/08/03 04:33:51;;;;;;;19.58;7.75;;;;;;;;;;4939868;29;20055;-83
2023/08/03 04:36:25;;;;;;;16.73;7.22;;;;;;;;;;4955006;29;20051;-83
2023/08/03 04:38:56;;;;;;;15.82;7.00;;;;;;;;;;4971012;28;20058;-82
2023/08/03 04:41:29;;;;;;;13.95;7.40;;;;;;;;;;4954865;29;20062;-82
2023/08/03 04:44:00;;;;;;;13.35;6.93;;;;;;;;;;4954886;29;20051;-82
2023/08/03 04:46:35;;;;;;;19.15;7.38;;;;;;;;;;4954228;29;20055;-81
2023/08/03 04:49:10;;;;;;;14.35;7.05;;;;;;;;;;4939284;29;20404;-83
2023/08/03 04:51:48;;;;;;;14.15;6.70;;;;;;;;;;4955162;29;20047;-82
2023/08/03 04:54:22;;;;;;;12.63;6.72;;;;;;;;;;4970306;28;20062;-82
2023/08/03 04:56:53;;;;;;;14.05;6.80;;;;;;;;;;4955587;29;20073;-82
2023/08/03 04:59:24;;;;;;;14.35;6.53;;;;;;;;;;4954736;29;20051;-83
2023/08/03 05:01:55;;;;;;;14.60;7.13;;;;;;;;;;4955108;29;20055;-82
2023/08/03 05:04:26;;;;;;;13.70;6.78;;;;;;;;;;4954555;29;20071;-82
2023/08/03 05:07:02;;;;;;;14.18;7.18;;;;;;;;;;4970238;28;20517;-82
2023/08/03 05:09:34;;;;;;;14.38;6.63;;;;;;;;;;4956936;29;20063;-82
2023/08/03 05:12:04;;;;;;;16.33;6.97;;;;;;;;;;4956394;29;20054;-82
2023/08/03 05:14:36;;;;;;;13.50;6.93;;;;;;;;;;4953953;29;20513;-82
2023/08/03 05:17:09;;;;;;;17.27;7.07;;;;;;;;;;4956180;29;20050;-82
2023/08/03 05:19:40;;;;;;;15.52;6.97;;;;;;;;;;4956460;29;20055;-81
2023/08/03 05:22:10;;;;;;;13.43;7.55;;;;;;;;;;4955880;29;20058;-82
2023/08/03 05:24:48;;;;;;;20.20;8.05;;;;;;;;;;4970641;28;20483;-82
2023/08/03 05:27:20;;;;;;;16.95;7.00;;;;;;;;;;4956003;29;20051;-82
2023/08/03 05:29:52;;;;;;;16.92;7.43;;;;;;;;;;4956243;29;20051;-83
2023/08/03 05:32:25;;;;;;;14.13;6.82;;;;;;;;;;4970230;28;20062;-83
2023/08/03 05:34:58;;;;;;;15.48;7.72;;;;;;;;;;4956176;29;20051;-83
2023/08/03 05:37:29;;;;;;;15.02;7.55;;;;;;;;;;4970347;28;20051;-83
2023/08/03 05:40:05;;;;;;;16.65;7.40;;;;;;;;;;4953815;29;20063;-82
2023/08/03 05:42:40;;;;;;;14.80;7.25;;;;;;;;;;4955920;29;20063;-82
2023/08/03 05:45:14;;;;;;;21.13;7.93;;;;;;;;;;4956194;29;20076;-82
2023/08/03 05:47:51;;;;;;;16.23;6.93;;;;;;;;;;4954286;29;20056;-82
2023/08/03 05:50:23;;;;;;;16.70;7.07;;;;;;;;;;4955235;28;20054;-82
2023/08/03 05:52:53;;;;;;;15.65;7.57;;;;;;;;;;4955283;29;20043;-83
2023/08/03 05:55:29;;;;;;;17.75;7.05;;;;;;;;;;4969647;28;20055;-83
2023/08/03 05:58:00;;;;;;;15.40;7.85;;;;;;;;;;4955932;29;20481;-83
2023/08/03 06:00:32;;;;;;;14.85;7.28;;;;;;;;;;4953601;29;20077;-82
2023/08/03 06:03:03;;;;;;;11.65;6.53;;;;;;;;;;4955297;29;20051;-82
2023/08/03 06:05:44;;;;;;;14.20;6.57;;;;;;;;;;4955617;29;20047;-82
2023/08/03 06:08:22;;;;;;;16.70;7.32;;;;;;;;;;4958857;28;20047;-83
2023/08/03 06:10:58;;;;;;;14.27;7.28;;;;;;;;;;4955349;29;20048;-83
2023/08/03 06:13:39;;;;;;;22.63;6.72;;;;;;;;;;4953833;29;20047;-82
2023/08/03 06:16:12;;;;;;;15.70;6.43;;;;;;;;;;4955463;29;20043;-82
2023/08/03 06:18:55;;;;;;;14.57;6.28;;;;;;;;;;4955037;29;20051;-82
2023/08/03 06:21:26;;;;;;;12.82;6.35;;;;;;;;;;4953626;29;20047;-82
2023/08/03 06:23:59;;;;;;;12.13;6.13;;;;;;;;;;4953311;29;20537;-81
2023/08/03 06:26:37;;;;;;;13.25;7.05;;;;;;;;;;4954963;29;20043;-82
2023/08/03 06:29:13;;;;;;;15.50;7.70;;;;;;;;;;4954495;29;20063;-81
2023/08/03 06:31:47;;;;;;;17.85;7.32;;;;;;;;;;4953184;29;20051;-82
2023/08/03 06:34:20;;;;;;;11.40;5.97;;;;;;;;;;4955183;29;20047;-82
2023/08/03 06:36:51;;;;;;;14.57;6.85;;;;;;;;;;4955074;29;20047;-81
2023/08/03 06:39:23;;;;;;;12.68;6.28;;;;;;;;;;4955134;29;20062;-83
2023/08/03 06:41:53;;;;;;;11.55;6.55;;;;;;;;;;4969537;28;20051;-81
2023/08/03 06:44:23;;;;;;;15.60;7.00;;;;;;;;;;4954849;29;20047;-82
2023/08/03 06:46:55;;;;;;;12.52;6.60;;;;;;;;;;4955019;29;20059;-81
2023/08/03 06:49:26;;;;;;;12.45;6.70;;;;;;;;;;4952884;29;20059;-80
2023/08/03 06:52:00;;;;;;;13.43;6.57;;;;;;;;;;4953198;29;20055;-80
2023/08/03 06:54:35;;;;;;;11.63;5.65;;;;;;;;;;4955959;29;20058;-80
2023/08/03 06:57:05;;;;;;;18.90;5.93;;;;;;;;;;4953392;29;20068;-80
2023/08/03 06:59:36;;;;;;;11.68;6.93;;;;;;;;;;4955162;29;20413;-80
2023/08/03 07:02:07;;;;;;;18.08;6.93;;;;;;;;;;4954693;28;20059;-79
2023/08/03 07:04:41;;;;;;;14.43;6.18;;;;;;;;;;4958961;29;20458;-80
2023/08/03 07:07:14;;;;;;;11.30;5.90;;;;;;;;;;4958649;29;20478;-80
2023/08/03 07:09:49;;;;;;;11.75;5.72;;;;;;;;;;4956703;29;20051;-82
2023/08/03 07:12:22;;;;;;;12.45;6.22;;;;;;;;;;4958809;29;20099;-82
2023/08/03 07:14:55;;;;;;;12.48;6.13;;;;;;;;;;4956519;29;20051;-80
2023/08/03 07:17:26;;;;;;;12.43;5.78;;;;;;;;;;4958670;29;20505;-81
2023/08/03 07:20:00;;;;;;;13.50;5.85;;;;;;;;;;4958199;29;20055;-80
2023/08/03 07:22:31;;;;;;;12.73;5.70;;;;;;;;;;4958008;29;20059;-79
2023/08/03 07:25:03;;;;;;;14.73;5.75;;;;;;;;;;4957006;29;20050;-81
2023/08/03 07:27:35;;;;;;;13.57;5.82;;;;;;;;;;4958391;29;20490;-80
2023/08/03 07:30:08;;;;;;;11.07;5.70;;;;;;;;;;4956285;29;20124;-81
2023/08/03 07:32:41;;;;;;;13.40;5.50;;;;;;;;;;4957137;29;20047;-80
2023/08/03 07:35:12;;;;;;;10.95;5.32;;;;;;;;;;4958108;29;20479;-81
2023/08/03 07:37:42;;;;;;;13.23;5.90;;;;;;;;;;4958041;29;20054;-81
2023/08/03 07:40:12;;;;;;;14.07;5.88;;;;;;;;;;4958400;29;20498;-80
2023/08/03 07:42:44;;;;;;;11.20;5.38;;;;;;;;;;4958574;29;20047;-80
2023/08/03 07:45:17;;;;;;;13.75;5.47;;;;;;;;;;4957706;29;20047;-81
2023/08/03 07:47:50;;;;;;;12.35;5.65;;;;;;;;;;4956451;29;20051;-80
2023/08/03 07:50:20;;;;;;;11.40;4.72;;;;;;;;;;4957779;29;20067;-81
2023/08/03 07:52:59;;;;;;;11.43;5.53;;;;;;;;;;4957688;29;20054;-83
2023/08/03 07:55:33;;;;;;;10.45;5.07;;;;;;;;;;4957507;29;20047;-81
2023/08/03 07:58:05;;;;;;;11.43;4.95;;;;;;;;;;4955620;29;20099;-81
2023/08/03 08:00:35;;;;;;;11.05;5.55;;;;;;;;;;4957767;29;20051;-82
2023/08/03 08:03:07;;;;;;;14.38;6.80;;;;;;;;;;4957510;29;20381;-82
2023/08/03 08:05:40;;;;;;;10.85;5.32;;;;;;;;;;4987722;28;20059;-81
2023/08/03 08:08:12;;;;;;;11.43;5.75;;;;;;;;;;4956486;29;20055;-82
2023/08/03 08:10:42;;;;;;;11.90;5.50;;;;;;;;;;4957639;29;20047;-83
2023/08/03 08:13:17;;;;;;;9.82;5.30;;;;;;;;;;4955277;28;20047;-81
2023/08/03 08:15:49;;;;;;;11.23;4.85;;;;;;;;;;4957489;29;20047;-81
2023/08/03 08:18:22;;;;;;;14.93;5.70;;;;;;;;;;4940221;29;20525;-81
2023/08/03 08:21:06;;;;;;;12.88;5.43;;;;;;;;;;4957806;29;20047;-83
2023/08/03 08:23:39;;;;;;;11.52;5.38;;;;;;;;;;4956196;28;20051;-81
2023/08/03 08:26:15;;;;;;;15.90;6.57;;;;;;;;;;4957121;29;20054;-81
2023/08/03 08:28:48;;;;;;;14.85;6.47;;;;;;;;;;4987875;28;20062;-81
2023/08/03 08:31:33;;;;;;;16.00;7.93;;;;;;;;;;4956534;29;20486;-82
2023/08/03 08:34:07;;;;;;;18.55;9.65;;;;;;;;;;4955882;29;20043;-81
2023/08/03 08:36:38;;;;;;;20.00;8.05;;;;;;;;;;4955751;28;20482;-81
2023/08/03 08:39:12;;;;;;;19.55;9.85;;;;;;;;;;4987650;28;20051;-83
2023/08/03 08:41:44;;;;;;;16.50;8.10;;;;;;;;;;4955490;29;20051;-81
2023/08/03 08:44:14;;;;;;;14.05;6.13;;;;;;;;;;4957078;29;20043;-82
2023/08/03 08:46:46;;;;;;;18.77;7.22;;;;;;;;;;4957056;29;20434;-81
2023/08/03 08:49:18;;;;;;;12.52;5.93;;;;;;;;;;4955577;29;20051;-83
2023/08/03 08:51:53;;;;;;;14.52;6.22;;;;;;;;;;4956538;29;20047;-81
2023/08/03 08:54:35;;;;;;;13.00;5.82;;;;;;;;;;4956376;29;20054;-81
2023/08/03 08:57:12;;;;;;;12.85;5.70;;;;;;;;;;4956815;29;20047;-82
2023/08/03 09:00:05;;;;;;;10.98;5.90;;;;;;;;;;4955345;29;20047;-81
2023/08/03 09:02:39;;;;;;;12.55;5.78;;;;;;;;;;4956301;29;20066;-81
2023/08/03 09:05:24;;;;;;;12.93;5.80;;;;;;;;;;4971094;28;20513;-81
2023/08/03 09:08:09;;;;;;;11.75;5.07;;;;;;;;;;4956093;29;20517;-80
2023/08/03 09:10:52;;;;;;;14.95;4.70;;;;;;;;;;4956391;29;20047;-81
2023/08/03 09:13:31;;;;;;;12.25;4.85;;;;;;;;;;4954688;29;20395;-82
2023/08/03 09:16:02;;;;;;;15.55;6.30;;;;;;;;;;4956067;29;20050;-81
2023/08/03 09:18:46;;;;;;;15.13;5.35;;;;;;;;;;4956260;29;20050;-80
2023/08/03 09:21:19;;;;;;;10.23;5.00;;;;;;;;;;4971160;28;20059;-80
2023/08/03 09:23:54;;;;;;;12.05;5.20;;;;;;;;;;4954925;29;20055;-82
2023/08/03 09:26:27;;;;;;;10.40;4.90;;;;;;;;;;4955331;28;20109;-81
2023/08/03 09:29:16;;;;;;;11.65;5.53;;;;;;;;;;4956223;29;20047;-81
2023/08/03 09:32:06;;;;;;;13.13;5.55;;;;;;;;;;4955809;29;20051;-81
2023/08/03 09:34:56;;;;;;;13.50;6.50;;;;;;;;;;4954127;29;20055;-81
2023/08/03 09:37:36;;;;;;;13.55;6.25;;;;;;;;;;4955765;29;20047;-81
2023/08/03 09:40:12;;;;;;;13.82;6.80;;;;;;;;;;4955400;29;20054;-81
2023/08/03 09:42:45;;;;;;;16.50;6.35;;;;;;;;;;4955922;29;20386;-81
2023/08/03 09:45:17;;;;;;;15.93;5.93;;;;;;;;;;4956121;29;20081;-83
2023/08/03 09:47:51;;;;;;;13.20;6.35;;;;;;;;;;4955553;29;20054;-81
2023/08/03 09:50:23;;;;;;;12.60;6.18;;;;;;;;;;4954409;29;20050;-80
2023/08/03 09:52:59;;;;;;;20.45;6.25;;;;;;;;;;4955450;29;20080;-80
2023/08/03 09:55:57;;;;;;;12.88;6.15;;;;;;;;;;4954569;29;20047;-81
2023/08/03 09:58:39;;;;;;;14.45;6.00;;;;;;;;;;4955187;29;20118;-83
2023/08/03 10:01:20;;;;;;;10.77;5.50;;;;;;;;;;4954197;29;20043;-81
2023/08/03 10:04:04;;;;;;;10.55;5.22;;;;;;;;;;4985648;28;20051;-80
2023/08/03 10:06:38;;;;;;;14.07;5.80;;;;;;;;;;4954888;29;20047;-81
2023/08/03 10:09:13;;;;;;;19.42;8.07;;;;;;;;;;4955277;29;20039;-82
2023/08/03 10:11:51;;;;;;;25.05;8.65;;;;;;;;;;4964366;28;20050;-81
2023/08/03 10:14:32;;;;;;;22.98;8.95;;;;;;;;;;4968849;28;20513;-80
2023/08/03 10:17:05;;;;;;;16.92;8.07;;;;;;;;;;4969993;28;20055;-81
2023/08/03 10:19:39;;;;;;;17.27;8.20;;;;;;;;;;4974127;28;20043;-81
2023/08/03 10:22:11;;;;;;;15.70;8.13;;;;;;;;;;4956791;28;20045;-80
2023/08/03 10:25:19;;;;;;;18.58;8.35;;;;;;;;;;4956793;28;20047;-80
2023/08/03 10:28:12;;;;;;;15.48;7.60;;;;;;;;;;4952905;29;20051;-80
2023/08/03 10:31:20;;;;;;;19.98;7.78;;;;;;;;;;4954722;29;20047;-82
2023/08/03 10:33:52;;;;;;;13.32;6.90;;;;;;;;;;4964314;28;20043;-82
2023/08/03 10:36:29;;;;;;;14.10;6.20;;;;;;;;;;4954865;28;20040;-81
2023/08/03 10:39:01;;;;;;;16.20;6.13;;;;;;;;;;4936865;29;20055;-80
2023/08/03 10:41:52;;;;;;;14.18;6.15;;;;;;;;;;4954938;28;20043;-81
2023/08/03 10:44:25;;;;;;;17.85;7.13;;;;;;;;;;4974343;28;20383;-82
2023/08/03 10:46:57;;;;;;;16.42;7.55;;;;;;;;;;4957482;28;20046;-81
2023/08/03 10:49:29;;;;;;;21.67;7.32;;;;;;;;;;4972962;28;20051;-80
2023/08/03 10:52:30;;;;;;;17.90;7.35;;;;;;;;;;4957918;28;20051;-82
2023/08/03 10:55:26;;;;;;;18.52;7.35;;;;;;;;;;4962031;28;20521;-80
2023/08/03 10:57:57;;;;;;;15.90;7.50;;;;;;;;;;4974099;28;20047;-81
2023/08/03 11:00:30;;;;;;;21.67;9.68;;;;;;;;;;4973227;28;20054;-83
2023/08/03 11:03:01;;;;;;;20.38;7.90;;;;;;;;;;4973566;28;20058;-80
2023/08/03 11:05:33;;;;;;;18.40;8.57;;;;;;;;;;4955496;28;20058;-81
2023/08/03 11:08:05;;;;;;;21.73;8.90;;;;;;;;;;4974909;28;20055;-80
2023/08/03 11:10:37;;;;;;;19.85;8.60;;;;;;;;;;4973928;28;20397;-79
2023/08/03 11:13:07;;;;;;;15.68;7.40;;;;;;;;;;4973122;28;20406;-79
2023/08/03 11:15:39;;;;;;;16.35;7.95;;;;;;;;;;4988157;28;20054;-81
2023/08/03 11:18:17;;;;;;;19.48;7.95;;;;;;;;;;4956021;28;20051;-80
2023/08/03 11:20:51;;;;;;;17.42;8.20;;;;;;;;;;4973933;28;20051;-82
2023/08/03 11:23:21;;;;;;;24.23;9.93;;;;;;;;;;4973859;28;20042;-81
2023/08/03 11:25:55;;;;;;;;;;;;;;;;;;4973276;28;20050;-79
2023/08/03 11:28:27;;;;;;;21.88;9.02;;;;;;;;;;4972969;28;19929;-83
2023/08/03 11:30:58;;;;;;;22.27;9.88;;;;;;;;;;4968178;28;20049;-82
2023/08/03 11:33:34;;;;;;;20.73;9.95;;;;;;;;;;4972508;28;20417;-82
2023/08/03 11:36:09;;;;;;;28.75;10.27;;;;;;;;;;4960663;28;20046;-82
2023/08/03 11:38:41;;;;;;;27.55;11.60;;;;;;;;;;4950874;28;20043;-82
2023/08/03 11:41:14;;;;;;;42.22;10.35;;;;;;;;;;4973174;28;20077;-83
2023/08/03 11:43:56;;;;;;;21.23;10.23;;;;;;;;;;4969438;28;20046;-83
2023/08/03 11:46:29;;;;;;;31.35;12.40;;;;;;;;;;4972885;28;20058;-82
2023/08/03 11:49:03;;;;;;;42.10;11.18;;;;;;;;;;4974276;28;20072;-80
2023/08/03 11:51:37;;;;;;;34.03;12.93;;;;;;;;;;4963581;28;20051;-82
2023/08/03 11:54:10;;;;;;;29.70;13.73;;;;;;;;;;4971747;28;20047;-80
2023/08/03 11:56:49;;;;;;;39.92;20.48;;;;;;;;;;4956769;28;20050;-80
2023/08/03 11:59:20;;;;;;;36.45;20.30;;;;;;;;;;4956594;28;20058;-84
2023/08/03 12:01:53;;;;;;;41.15;18.77;;;;;;;;;;4974089;28;20059;-83
2023/08/03 12:04:26;;;;;;;39.22;20.23;;;;;;;;;;4973223;28;20051;-82
2023/08/03 12:07:00;;;;;;;31.35;15.57;;;;;;;;;;4956183;28;20066;-84
2023/08/03 12:09:51;;;;;;;35.60;16.73;;;;;;;;;;4969398;28;20103;-83
2023/08/03 12:12:23;;;;;;;33.53;17.02;;;;;;;;;;4955517;28;20054;-83
2023/08/03 12:14:55;;;;;;;31.23;17.02;;;;;;;;;;4956331;29;20059;-82
2023/08/03 12:17:31;;;;;;;37.22;18.25;;;;;;;;;;4956165;29;20477;-81
2023/08/03 12:20:02;;;;;;;41.08;18.40;;;;;;;;;;4956088;29;20055;-82
2023/08/03 12:22:35;;;;;;;32.08;16.88;;;;;;;;;;4954690;29;20043;-83
2023/08/03 12:25:05;;;;;;;36.20;14.05;;;;;;;;;;4955694;29;20055;-83
2023/08/03 12:27:38;;;;;;;24.65;13.85;;;;;;;;;;4938410;29;20066;-83
2023/08/03 12:30:11;;;;;;;24.52;11.85;;;;;;;;;;4956087;29;20055;-80
2023/08/03 12:32:43;;;;;;;22.27;10.43;;;;;;;;;;4955643;29;20070;-82
2023/08/03 12:35:13;;;;;;;23.35;10.30;;;;;;;;;;4926825;28;20046;-82
2023/08/03 12:37:45;;;;;;;21.02;9.98;;;;;;;;;;4972978;28;20074;-81
2023/08/03 12:40:19;;;;;;;20.02;9.80;;;;;;;;;;4967768;28;20055;-82
2023/08/03 12:42:50;;;;;;;21.17;9.63;;;;;;;;;;4956513;29;20055;-82
2023/08/03 12:45:20;;;;;;;16.75;8.77;;;;;;;;;;4955699;29;20545;-83
2023/08/03 12:47:54;;;;;;;;;;;;;;;;;;4956522;29;20055;-83
2023/08/03 12:50:27;;;;;;;21.73;10.98;;;;;;;;;;4955971;28;20411;-83
2023/08/03 12:52:59;;;;;;;25.63;12.63;;;;;;;;;;4956572;28;20510;-83
2023/08/03 12:55:30;;;;;;;32.38;16.92;;;;;;;;;;4955874;29;20054;-81
2023/08/03 12:58:00;;;;;;;23.73;11.10;;;;;;;;;;4959396;28;20050;-82
2023/08/03 13:00:32;;;;;;;23.77;9.60;;;;;;;;;;4956097;28;20046;-82
2023/08/03 13:03:04;;;;;;;18.98;9.10;;;;;;;;;;4974377;28;20058;-84
2023/08/03 13:05:37;;;;;;;18.13;9.07;;;;;;;;;;4974862;28;20486;-82
2023/08/03 13:08:11;;;;;;;19.70;8.15;;;;;;;;;;4974689;28;20038;-83
2023/08/03 13:10:41;;;;;;;14.82;7.53;;;;;;;;;;4973928;28;20043;-83
2023/08/03 13:13:12;;;;;;;14.23;5.97;;;;;;;;;;4974521;28;20042;-82
2023/08/03 13:15:44;;;;;;;17.05;7.18;;;;;;;;;;4974927;28;20046;-84
2023/08/03 13:18:16;;;;;;;14.95;7.57;;;;;;;;;;4958095;28;20042;-82
2023/08/03 13:20:50;;;;;;;18.08;7.78;;;;;;;;;;4971754;28;20050;-82
2023/08/03 13:23:35;;;;;;;17.08;7.80;;;;;;;;;;4974682;28;20047;-84
2023/08/03 13:26:06;;;;;;;17.40;8.15;;;;;;;;;;4973486;28;20047;-86
2023/08/03 13:28:37;;;;;;;34.97;18.08;;;;;;;;;;4974703;28;20402;-85
2023/08/03 13:31:07;;;;;;;24.67;13.13;;;;;;;;;;4974308;28;20425;-82
2023/08/03 13:33:40;;;;;;;15.45;8.50;;;;;;;;;;4974316;28;20051;-81
2023/08/03 13:36:11;;;;;;;13.00;6.80;;;;;;;;;;4974489;28;20054;-85
2023/08/03 13:38:42;;;;;;;18.25;8.52;;;;;;;;;;4974441;28;20352;-82
2023/08/03 13:41:12;;;;;;;12.55;6.53;;;;;;;;;;4974421;28;20414;-83
2023/08/03 13:43:45;;;;;;;19.23;9.63;;;;;;;;;;4974457;28;20054;-82
2023/08/03 13:46:17;;;;;;;13.10;6.88;;;;;;;;;;4974384;28;20405;-83
2023/08/03 13:48:55;;;;;;;30.52;20.45;;;;;;;;;;4974590;28;20058;-81
2023/08/03 13:51:27;;;;;;;;;;;;;;;;;;4960495;28;20441;-82
2023/08/03 13:53:58;;;;;;;15.35;8.40;;;;;;;;;;4954216;29;19938;-82
2023/08/03 13:56:28;;;;;;;15.27;7.65;;;;;;;;;;4953809;29;20039;-81
2023/08/03 13:59:01;;;;;;;11.80;6.72;;;;;;;;;;4954707;29;20051;-82
2023/08/03 14:01:35;;;;;;;;;;;;;;;;;;4957002;28;20055;-81
2023/08/03 14:04:08;;;;;;;11.20;5.35;;;;;;;;;;4954490;28;19922;-82
2023/08/03 14:06:41;;;;;;;12.43;6.70;;;;;;;;;;4972720;28;20397;-81
2023/08/03 14:09:17;;;;;;;10.85;5.53;;;;;;;;;;4973446;28;20038;-80
2023/08/03 14:11:50;;;;;;;9.40;4.80;;;;;;;;;;4973941;28;20057;-80
2023/08/03 14:14:25;;;;;;;11.45;4.80;;;;;;;;;;4974272;28;20493;-80
2023/08/03 14:16:59;;;;;;;11.80;6.97;;;;;;;;;;4973674;28;20481;-80
2023/08/03 14:19:33;;;;;;;13.30;7.20;;;;;;;;;;4973718;28;20047;-82
2023/08/03 14:22:05;;;;;;;11.32;6.53;;;;;;;;;;4973907;28;20402;-80
2023/08/03 14:24:40;;;;;;;10.68;4.38;;;;;;;;;;4973721;28;20051;-82
2023/08/03 14:27:33;;;;;;;9.38;5.10;;;;;;;;;;4973519;28;20417;-81
2023/08/03 14:30:06;;;;;;;15.07;5.43;;;;;;;;;;4973775;28;20047;-81
2023/08/03 14:32:36;;;;;;;;;;;;;;;;;;4974202;28;20058;-80
2023/08/03 14:35:06;;;;;;;10.75;4.20;;;;;;;;;;4973574;28;19922;-81
2023/08/03 14:37:40;;;;;;;8.95;5.10;;;;;;;;;;4974105;28;20042;-80
2023/08/03 14:40:11;;;;;;;10.35;5.40;;;;;;;;;;4973311;28;20050;-80
2023/08/03 14:42:45;;;;;;;11.60;4.88;;;;;;;;;;4973833;28;20046;-79
2023/08/03 14:45:28;;;;;;;9.30;4.15;;;;;;;;;;4973563;28;20497;-80
2023/08/03 14:48:04;;;;;;;11.35;4.53;;;;;;;;;;4973157;28;20106;-82
2023/08/03 14:50:52;;;;;;;14.48;4.82;;;;;;;;;;4973304;28;20051;-82
2023/08/03 14:53:26;;;;;;;6.68;3.22;;;;;;;;;;4957207;28;20042;-81
2023/08/03 14:56:01;;;;;;;8.27;2.45;;;;;;;;;;4972087;28;20042;-81
2023/08/03 14:58:36;;;;;;;4.50;1.90;;;;;;;;;;4972601;28;20429;-82
2023/08/03 15:01:12;;;;;;;3.90;1.77;;;;;;;;;;4955819;28;20062;-84
2023/08/03 15:03:45;;;;;;;;;;;;;;;;;;4972786;28;20051;-84
2023/08/03 15:06:17;;;;;;;4.13;1.98;;;;;;;;;;4972465;28;19922;-83
2023/08/03 15:08:52;;;;;;;5.78;2.30;;;;;;;;;;4971387;28;20069;-83
2023/08/03 15:11:23;;;;;;;6.03;1.83;;;;;;;;;;4973223;28;20043;-82
2023/08/03 15:13:54;;;;;;;6.32;2.10;;;;;;;;;;4973361;28;20038;-82